createdAt,value
2023-12-08T00:01:14.495Z,100092.84
2023-12-08T00:03:41.178Z,100124.69
2023-12-08T00:06:10.952Z,100084.06
2023-12-08T00:08:38.746Z,100111.63
2023-12-08T00:11:06.269Z,99937.91
2023-12-08T00:13:32.991Z,99893.06
2023-12-08T00:15:59.396Z,100044.31
2023-12-08T00:18:25.965Z,100008.50
2023-12-08T00:20:52.545Z,99939.63
2023-12-08T00:23:19.079Z,99913.75
2023-12-08T00:25:45.547Z,100004.88
2023-12-08T00:28:11.990Z,100017.06
2023-12-08T00:30:38.393Z,100033.16
2023-12-08T00:33:04.999Z,100055.50
2023-12-08T00:35:32.018Z,100018.38
2023-12-08T00:37:58.467Z,100015.00
2023-12-08T00:40:24.821Z,100087.13
2023-12-08T00:42:51.215Z,100099.97
2023-12-08T00:45:17.725Z,100072.75
2023-12-08T00:47:44.784Z,100069.19
2023-12-08T00:50:11.372Z,99956.66
2023-12-08T00:52:37.794Z,100059.13
2023-12-08T00:55:04.541Z,99908.66
2023-12-08T00:57:30.955Z,99926.66
2023-12-08T00:59:58.694Z,100085.72
2023-12-08T01:02:28.259Z,100040.97
2023-12-08T01:04:54.710Z,100035.94
2023-12-08T01:07:21.138Z,100060.69
2023-12-08T01:09:52.889Z,99963.72
2023-12-08T01:12:19.267Z,100056.44
2023-12-08T01:14:45.655Z,100022.09
2023-12-08T01:17:12.137Z,100051.31
2023-12-08T01:19:38.532Z,99911.97
2023-12-08T01:22:04.982Z,100047.81
2023-12-08T01:24:31.442Z,100040.94
2023-12-08T01:26:57.908Z,99963.53
2023-12-08T01:29:24.316Z,100037.41
2023-12-08T01:31:50.781Z,100009.72
2023-12-08T01:34:17.753Z,99953.09
2023-12-08T01:36:44.870Z,99882.03
2023-12-08T01:39:12.161Z,99916.19
2023-12-08T01:41:39.384Z,99999.50
2023-12-08T01:44:05.954Z,99973.72
2023-12-08T01:46:32.663Z,100013.13
2023-12-08T01:48:59.674Z,99947.88
2023-12-08T01:51:27.212Z,99831.91
2023-12-08T01:53:53.810Z,99982.03
2023-12-08T01:56:21.426Z,99901.44
2023-12-08T01:58:48.207Z,99946.03
2023-12-08T02:01:15.576Z,99964.16
2023-12-08T02:03:42.840Z,99954.59
2023-12-08T02:06:10.739Z,99978.00
2023-12-08T02:08:37.346Z,99997.63
2023-12-08T02:11:03.954Z,99964.00
2023-12-08T02:13:30.531Z,99924.50
2023-12-08T02:16:05.327Z,99949.44
2023-12-08T02:18:34.756Z,99817.03
2023-12-08T02:21:04.280Z,99994.00
2023-12-08T02:23:30.819Z,99933.28
2023-12-08T02:25:57.233Z,99943.41
2023-12-08T02:28:23.836Z,99952.88
2023-12-08T02:30:52.545Z,99944.25
2023-12-08T02:33:29.386Z,99931.31
2023-12-08T02:35:56.804Z,99818.03
2023-12-08T02:38:25.567Z,99872.22
2023-12-08T02:40:52.034Z,99753.53
2023-12-08T02:43:18.505Z,99916.66
2023-12-08T02:45:44.924Z,99954.50
2023-12-08T02:48:11.369Z,99957.88
2023-12-08T02:50:37.873Z,99975.78
2023-12-08T02:53:04.531Z,99885.59
2023-12-08T02:55:31.785Z,99925.09
2023-12-08T02:57:58.174Z,99780.97
2023-12-08T03:00:24.576Z,99909.69
2023-12-08T03:02:51.137Z,99895.22
2023-12-08T03:05:17.588Z,99901.97
2023-12-08T03:07:44.113Z,99899.38
2023-12-08T03:10:10.655Z,99917.50
2023-12-08T03:12:37.093Z,99799.03
2023-12-08T03:15:04.033Z,99850.47
2023-12-08T03:17:30.941Z,99895.19
2023-12-08T03:19:58.424Z,99915.78
2023-12-08T03:22:24.989Z,99857.47
2023-12-08T03:24:51.455Z,99787.34
2023-12-08T03:27:18.032Z,99878.84
2023-12-08T03:29:44.530Z,99732.84
2023-12-08T03:32:10.908Z,99812.63
2023-12-08T03:34:38.477Z,99896.56
2023-12-08T03:37:05.237Z,99863.25
2023-12-08T03:39:31.642Z,99889.81
2023-12-08T03:41:58.209Z,99712.38
2023-12-08T03:44:25.053Z,99881.28
2023-12-08T03:46:51.548Z,99791.16
2023-12-08T03:49:18.879Z,99844.25
2023-12-08T03:51:45.388Z,99885.28
2023-12-08T03:54:11.934Z,99914.88
2023-12-08T03:56:38.377Z,99810.41
2023-12-08T03:59:04.922Z,99918.38
2023-12-08T04:01:31.530Z,99913.22
2023-12-08T04:03:58.011Z,99949.41
2023-12-08T04:06:24.556Z,99872.13
2023-12-08T04:08:51.050Z,99950.31
2023-12-08T04:11:17.439Z,99903.88
2023-12-08T04:13:43.834Z,99930.34
2023-12-08T04:16:10.757Z,99901.09
2023-12-08T04:18:37.557Z,99901.31
2023-12-08T04:21:04.159Z,99848.22
2023-12-08T04:23:30.603Z,99916.88
2023-12-08T04:25:58.831Z,99908.19
2023-12-08T04:28:25.954Z,99739.88
2023-12-08T04:30:52.482Z,99817.16
2023-12-08T04:33:19.036Z,99746.63
2023-12-08T04:35:45.676Z,99883.84
2023-12-08T04:38:12.274Z,99843.75
2023-12-08T04:40:38.668Z,99814.56
2023-12-08T04:43:05.227Z,99932.16
2023-12-08T04:45:31.883Z,99695.22
2023-12-08T04:47:59.383Z,99709.19
2023-12-08T04:50:26.320Z,99706.22
2023-12-08T04:52:52.904Z,99720.81
2023-12-08T04:55:19.507Z,99766.16
2023-12-08T04:57:45.962Z,99789.56
2023-12-08T05:00:15.719Z,99677.97
2023-12-08T05:02:42.287Z,99796.13
2023-12-08T05:05:15.002Z,99736.03
2023-12-08T05:07:43.220Z,99622.94
2023-12-08T05:10:09.980Z,99602.28
2023-12-08T05:12:38.298Z,99802.91
2023-12-08T05:15:05.406Z,99905.00
2023-12-08T05:17:32.095Z,99727.34
2023-12-08T05:19:58.638Z,99748.09
2023-12-08T05:22:25.074Z,99676.16
2023-12-08T05:24:51.591Z,99915.41
2023-12-08T05:27:21.649Z,99731.00
2023-12-08T05:29:48.187Z,99660.69
2023-12-08T05:32:14.731Z,99731.09
2023-12-08T05:34:41.307Z,99867.25
2023-12-08T05:37:07.819Z,99783.19
2023-12-08T05:39:36.791Z,99718.91
2023-12-08T05:42:04.090Z,99601.47
2023-12-08T05:44:30.738Z,99789.09
2023-12-08T05:46:58.542Z,99733.50
2023-12-08T05:49:25.895Z,99886.88
2023-12-08T05:51:54.973Z,99849.22
2023-12-08T05:54:21.687Z,99705.09
2023-12-08T05:56:49.368Z,99864.41
2023-12-08T05:59:15.789Z,99737.69
2023-12-08T06:01:44.616Z,99844.00
2023-12-08T06:04:11.210Z,99737.72
2023-12-08T06:06:39.189Z,99831.06
2023-12-08T06:09:08.496Z,99804.38
2023-12-08T06:11:35.012Z,99804.69
2023-12-08T06:14:01.747Z,99623.72
2023-12-08T06:16:28.808Z,99845.78
2023-12-08T06:18:57.237Z,99748.09
2023-12-08T06:21:23.947Z,99720.63
2023-12-08T06:23:50.400Z,99979.75
2023-12-08T06:26:19.889Z,99929.75
2023-12-08T06:28:46.382Z,99876.88
2023-12-08T06:31:13.312Z,99922.38
2023-12-08T06:33:40.188Z,99943.72
2023-12-08T06:36:09.488Z,99731.56
2023-12-08T06:38:45.461Z,99776.28
2023-12-08T06:41:12.740Z,99926.41
2023-12-08T06:43:39.237Z,99946.91
2023-12-08T06:46:05.780Z,99809.78
2023-12-08T06:48:32.662Z,99781.38
2023-12-08T06:50:59.299Z,99725.59
2023-12-08T06:53:25.981Z,99789.13
2023-12-08T06:55:52.514Z,99899.75
2023-12-08T06:58:19.020Z,99863.72
2023-12-08T07:00:45.578Z,99899.00
2023-12-08T07:03:13.990Z,99885.22
2023-12-08T07:05:42.974Z,99723.19
2023-12-08T07:08:09.501Z,99900.63
2023-12-08T07:10:36.103Z,99807.13
2023-12-08T07:13:02.630Z,99928.84
2023-12-08T07:15:29.391Z,99914.38
2023-12-08T07:17:56.605Z,99792.63
2023-12-08T07:20:23.314Z,99809.53
2023-12-08T07:22:49.986Z,99813.94
2023-12-08T07:25:16.770Z,99975.22
2023-12-08T07:27:43.840Z,99852.75
2023-12-08T07:30:11.514Z,99853.44
2023-12-08T07:32:40.384Z,99808.75
2023-12-08T07:35:07.800Z,99923.78
2023-12-08T07:37:34.516Z,99732.44
2023-12-08T07:40:03.365Z,99888.78
2023-12-08T07:42:32.322Z,99658.94
2023-12-08T07:45:01.834Z,99952.09
2023-12-08T07:47:28.743Z,99967.50
2023-12-08T07:49:58.316Z,99778.81
2023-12-08T07:52:27.981Z,99975.28
2023-12-08T07:54:55.226Z,99890.59
2023-12-08T07:57:21.773Z,100000.28
2023-12-08T07:59:49.251Z,99885.41
2023-12-08T08:02:16.010Z,99898.28
2023-12-08T08:04:49.845Z,99820.25
2023-12-08T08:07:19.070Z,99712.00
2023-12-08T08:09:45.537Z,99986.72
2023-12-08T08:12:13.307Z,99898.19
2023-12-08T08:14:40.057Z,99717.22
2023-12-08T08:17:09.358Z,99990.13
2023-12-08T08:19:41.646Z,99854.41
2023-12-08T08:22:28.964Z,99712.13
2023-12-08T08:24:55.352Z,99865.06
2023-12-08T08:27:22.945Z,100019.41
2023-12-08T08:29:49.639Z,99880.31
2023-12-08T08:32:18.278Z,99911.97
2023-12-08T08:34:45.900Z,100029.59
2023-12-08T08:37:12.830Z,99996.88
2023-12-08T08:39:39.434Z,99913.72
2023-12-08T08:42:06.221Z,100003.84
2023-12-08T08:44:32.726Z,99986.63
2023-12-08T08:46:59.199Z,99882.00
2023-12-08T08:49:25.824Z,99871.66
2023-12-08T08:51:52.410Z,99866.44
2023-12-08T08:54:18.986Z,99928.19
2023-12-08T08:56:45.467Z,99885.25
2023-12-08T08:59:12.049Z,100002.00
2023-12-08T09:01:39.577Z,99984.78
2023-12-08T09:04:06.090Z,99898.97
2023-12-08T09:06:32.653Z,99875.88
2023-12-08T09:08:59.313Z,99897.41
2023-12-08T09:11:25.748Z,100038.09
2023-12-08T09:13:52.296Z,99987.44
2023-12-08T09:16:18.846Z,99941.97
2023-12-08T09:18:45.444Z,99929.75
2023-12-08T09:21:11.928Z,99891.13
2023-12-08T09:23:38.467Z,100013.81
2023-12-08T09:26:05.154Z,99991.38
2023-12-08T09:28:31.650Z,99861.97
2023-12-08T09:30:58.727Z,100021.47
2023-12-08T09:33:29.009Z,99929.75
2023-12-08T09:35:56.731Z,99942.44
2023-12-08T09:38:31.280Z,100025.81
2023-12-08T09:41:02.235Z,99963.81
2023-12-08T09:43:42.610Z,100041.16
2023-12-08T09:46:09.928Z,100047.03
2023-12-08T09:48:39.161Z,100052.06
2023-12-08T09:51:08.495Z,100017.75
2023-12-08T09:53:36.396Z,99998.94
2023-12-08T09:56:03.396Z,100026.31
2023-12-08T09:58:31.089Z,100042.69
2023-12-08T10:00:59.434Z,100075.34
2023-12-08T10:03:27.386Z,99778.38
2023-12-08T10:05:56.211Z,100043.41
2023-12-08T10:08:25.510Z,99951.53
2023-12-08T10:10:52.413Z,99887.13
2023-12-08T10:13:19.470Z,99942.81
2023-12-08T10:15:46.010Z,99927.38
2023-12-08T10:18:27.011Z,100057.91
2023-12-08T10:21:13.595Z,99990.91
2023-12-08T10:23:45.140Z,99873.47
2023-12-08T10:26:13.650Z,100054.47
2023-12-08T10:28:40.969Z,99999.38
2023-12-08T10:31:07.620Z,99908.59
2023-12-08T10:33:34.453Z,100015.66
2023-12-08T10:36:01.539Z,99998.53
2023-12-08T10:38:28.141Z,100018.19
2023-12-08T10:40:54.808Z,99873.88
2023-12-08T10:43:26.592Z,100072.75
2023-12-08T10:45:53.901Z,100058.91
2023-12-08T10:48:21.882Z,99944.19
2023-12-08T10:50:50.166Z,99825.78
2023-12-08T10:53:21.153Z,99929.69
2023-12-08T10:56:01.675Z,100057.66
2023-12-08T10:58:29.662Z,99891.38
2023-12-08T11:00:57.294Z,99769.31
2023-12-08T11:03:25.244Z,100064.47
2023-12-08T11:06:10.991Z,100044.25
2023-12-08T11:08:44.375Z,99946.81
2023-12-08T11:11:12.116Z,100075.13
2023-12-08T11:13:45.173Z,100056.88
2023-12-08T11:16:36.340Z,100089.53
2023-12-08T11:19:04.214Z,100071.50
2023-12-08T11:21:30.977Z,100063.75
2023-12-08T11:23:58.085Z,100081.16
2023-12-08T11:26:36.374Z,100092.28
2023-12-08T11:29:31.334Z,100081.16
2023-12-08T11:32:05.353Z,100084.69
2023-12-08T11:34:34.810Z,100079.03
2023-12-08T11:37:03.407Z,100084.47
2023-12-08T11:39:45.020Z,100085.41
2023-12-08T11:42:13.612Z,100061.47
2023-12-08T11:44:44.332Z,100093.09
2023-12-08T11:47:18.199Z,99927.34
2023-12-08T11:49:48.241Z,99970.88
2023-12-08T11:52:14.695Z,100082.00
2023-12-08T11:57:30.903Z,100074.34
2023-12-08T11:59:58.064Z,99974.19
2023-12-08T12:02:24.590Z,99862.53
2023-12-08T12:04:51.239Z,100046.59
2023-12-08T12:07:20.918Z,99972.47
2023-12-08T12:09:53.686Z,100029.47
2023-12-08T12:12:33.770Z,100103.53
2023-12-08T12:15:07.601Z,100096.44
2023-12-08T12:17:37.872Z,99922.63
2023-12-08T12:20:09.241Z,99960.41
2023-12-08T12:22:38.011Z,100008.88
2023-12-08T12:25:07.355Z,99936.09
2023-12-08T12:27:43.892Z,100010.72
2023-12-08T12:30:11.558Z,99983.00
2023-12-08T12:32:39.564Z,100012.25
2023-12-08T12:35:07.420Z,99950.94
2023-12-08T12:37:35.037Z,100087.09
2023-12-08T12:40:01.962Z,100101.91
2023-12-08T12:42:28.538Z,99878.75
2023-12-08T12:44:58.907Z,100092.88
2023-12-08T12:47:27.039Z,100112.16
2023-12-08T12:50:17.398Z,99920.75
2023-12-08T12:52:46.795Z,99828.56
2023-12-08T12:55:26.034Z,100069.34
2023-12-08T12:58:00.492Z,99875.06
2023-12-08T13:00:39.204Z,99995.50
2023-12-08T13:03:16.769Z,99940.34
2023-12-08T13:05:49.445Z,100122.84
2023-12-08T13:08:18.073Z,99999.25
2023-12-08T13:10:46.240Z,100138.22
2023-12-08T13:13:15.740Z,100090.16
2023-12-08T13:15:43.458Z,99966.81
2023-12-08T13:18:10.431Z,100058.25
2023-12-08T13:20:41.074Z,100157.88
2023-12-08T13:23:08.076Z,99937.47
2023-12-08T13:25:35.823Z,100108.34
2023-12-08T13:28:02.401Z,100134.97
2023-12-08T13:30:31.502Z,100019.22
2023-12-08T13:32:58.490Z,100094.91
2023-12-08T13:35:25.246Z,100076.22
2023-12-08T13:37:59.920Z,99991.25
2023-12-08T13:40:30.484Z,100036.03
2023-12-08T13:43:00.694Z,99989.34
2023-12-08T13:45:28.795Z,100059.59
2023-12-08T13:47:55.578Z,100106.75
2023-12-08T13:50:25.202Z,100122.03
2023-12-08T13:52:51.712Z,100093.56
2023-12-08T13:55:18.687Z,100070.53
2023-12-08T13:57:45.178Z,100107.25
2023-12-08T14:00:12.430Z,100034.25
2023-12-08T14:02:38.945Z,100009.00
2023-12-08T14:05:05.747Z,99967.09
2023-12-08T14:07:32.390Z,100118.06
2023-12-08T14:09:59.362Z,100039.28
2023-12-08T14:12:25.852Z,100049.66
2023-12-08T14:14:52.658Z,100066.06
2023-12-08T14:17:19.268Z,100155.56
2023-12-08T14:19:45.723Z,100051.25
2023-12-08T14:22:12.181Z,100118.94
2023-12-08T14:24:38.755Z,100127.22
2023-12-08T14:27:05.450Z,100123.19
2023-12-08T14:29:31.973Z,100081.88
2023-12-08T14:31:58.394Z,100111.34
2023-12-08T14:34:25.126Z,100202.03
2023-12-08T14:36:51.725Z,100140.19
2023-12-08T14:39:18.938Z,100031.88
2023-12-08T14:41:45.507Z,100167.63
2023-12-08T14:44:12.070Z,100131.22
2023-12-08T14:46:38.533Z,100141.47
2023-12-08T14:49:05.937Z,100097.00
2023-12-08T14:51:32.650Z,100057.72
2023-12-08T14:53:59.155Z,100162.19
2023-12-08T14:56:26.939Z,100168.69
2023-12-08T14:58:53.483Z,100171.94
2023-12-08T15:01:21.560Z,100185.75
2023-12-08T15:03:51.230Z,100218.44
2023-12-08T15:06:20.516Z,100133.72
2023-12-08T15:08:50.762Z,100245.56
2023-12-08T15:11:17.540Z,100095.38
2023-12-08T15:13:48.821Z,100094.72
2023-12-08T15:16:15.457Z,100168.50
2023-12-08T15:18:42.468Z,100156.53
2023-12-08T15:21:09.270Z,100200.38
2023-12-08T15:23:40.282Z,100237.22
2023-12-08T15:26:06.884Z,100253.88
2023-12-08T15:28:33.337Z,100223.84
2023-12-08T15:30:59.835Z,100196.81
2023-12-08T15:33:27.976Z,100237.25
2023-12-08T15:35:54.615Z,100177.09
2023-12-08T15:38:22.301Z,100196.00
2023-12-08T15:40:48.766Z,100187.59
2023-12-08T15:43:18.492Z,100260.59
2023-12-08T15:45:45.564Z,100209.63
2023-12-08T15:48:12.299Z,100205.22
2023-12-08T15:50:38.870Z,100211.34
2023-12-08T15:53:08.183Z,100212.47
2023-12-08T15:55:35.267Z,100175.00
2023-12-08T15:58:04.842Z,100284.78
2023-12-08T16:00:33.940Z,100189.50
2023-12-08T16:03:01.979Z,100291.53
2023-12-08T16:05:28.917Z,100208.06
2023-12-08T16:07:55.450Z,100245.97
2023-12-08T16:10:24.270Z,100209.16
2023-12-08T16:12:53.285Z,100305.91
2023-12-08T16:15:19.837Z,100305.16
2023-12-08T16:17:46.585Z,100228.00
2023-12-08T16:20:13.309Z,100205.09
2023-12-08T16:22:41.151Z,100204.78
2023-12-08T16:25:09.615Z,100214.38
2023-12-08T16:27:36.150Z,100257.28
2023-12-08T16:37:26.200Z,100222.66
2023-12-08T16:39:54.029Z,100257.03
2023-12-08T16:42:20.886Z,100238.19
2023-12-08T16:44:51.937Z,100224.59
2023-12-08T16:52:35.234Z,100261.66
2023-12-08T16:55:01.924Z,100229.13
2023-12-08T16:57:28.470Z,100333.88
2023-12-08T16:59:54.901Z,100193.00
2023-12-08T17:02:21.274Z,100347.91
2023-12-08T17:04:47.741Z,100248.28
2023-12-08T17:07:14.268Z,100339.06
2023-12-08T17:09:40.708Z,100302.84
2023-12-08T17:12:08.291Z,100326.03
2023-12-08T17:14:34.858Z,100219.38
2023-12-08T17:17:01.268Z,100315.63
2023-12-08T17:19:27.658Z,100150.72
2023-12-08T17:21:54.068Z,100337.19
2023-12-08T17:24:21.694Z,100365.97
2023-12-08T17:26:53.190Z,100337.53
2023-12-08T17:29:19.569Z,100335.22
2023-12-08T17:31:45.948Z,100323.50
2023-12-08T17:34:19.051Z,100307.19
2023-12-08T17:36:49.147Z,100309.78
2023-12-08T17:39:17.574Z,100336.00
2023-12-08T17:41:44.255Z,100236.03
2023-12-08T17:44:10.626Z,100361.66
2023-12-08T17:46:40.484Z,100375.41
2023-12-08T17:49:07.081Z,100342.88
2023-12-08T17:51:33.797Z,100363.50
2023-12-08T17:54:00.752Z,100380.66
2023-12-08T17:56:27.180Z,100361.63
2023-12-08T17:58:53.547Z,100364.50
2023-12-08T18:01:20.117Z,100337.44
2023-12-08T18:03:46.589Z,100370.25
2023-12-08T18:06:17.240Z,100373.03
2023-12-08T18:08:43.841Z,100310.94
2023-12-08T18:11:26.539Z,100371.16
2023-12-08T18:13:54.538Z,100379.81
2023-12-08T18:16:28.513Z,100385.06
2023-12-08T18:18:56.798Z,100378.03
2023-12-08T18:21:27.421Z,100358.34
2023-12-08T18:23:54.684Z,100236.41
2023-12-08T18:26:21.695Z,100384.19
2023-12-08T18:31:28.279Z,100376.31
2023-12-08T18:33:56.648Z,100386.03
2023-12-08T18:36:26.822Z,100369.53
2023-12-08T18:38:55.642Z,100362.72
2023-12-08T18:41:22.036Z,100352.69
2023-12-08T18:43:48.988Z,100386.03
2023-12-08T18:46:15.983Z,100264.91
2023-12-08T18:48:43.944Z,100379.09
2023-12-08T18:51:11.893Z,100369.72
2023-12-08T18:53:38.711Z,100379.22
2023-12-08T18:56:05.618Z,100372.50
2023-12-08T18:58:32.878Z,100352.56
2023-12-08T19:00:59.412Z,100361.41
2023-12-08T19:03:26.100Z,100370.22
2023-12-08T19:05:52.594Z,100362.56
2023-12-08T19:08:19.076Z,100351.50
2023-12-08T19:10:46.768Z,100391.03
2023-12-08T19:13:13.180Z,100347.19
2023-12-08T19:15:39.546Z,100335.16
2023-12-08T19:18:06.056Z,100369.50
2023-12-08T19:20:32.617Z,100399.41
2023-12-08T19:22:59.889Z,100368.47
2023-12-08T19:25:26.306Z,100362.53
2023-12-08T19:27:52.688Z,100333.31
2023-12-08T19:30:19.170Z,100329.81
2023-12-08T19:32:45.687Z,100388.22
2023-12-08T19:35:12.424Z,100372.66
2023-12-08T19:37:38.906Z,100318.59
2023-12-08T19:40:05.992Z,100377.66
2023-12-08T19:42:33.264Z,100381.09
2023-12-08T19:44:59.905Z,100349.19
2023-12-08T19:47:27.346Z,100303.78
2023-12-08T19:49:54.040Z,100353.75
2023-12-08T19:52:21.504Z,100376.06
2023-12-08T19:54:47.882Z,100289.25
2023-12-08T19:57:16.008Z,100400.16
2023-12-08T19:59:43.086Z,100352.09
2023-12-08T20:02:09.824Z,100367.38
2023-12-08T20:04:36.241Z,100373.38
2023-12-08T20:07:02.841Z,100393.38
2023-12-08T20:09:29.331Z,100272.16
2023-12-08T20:11:55.741Z,100386.38
2023-12-08T20:14:22.153Z,100396.75
2023-12-08T20:16:48.816Z,100367.63
2023-12-08T20:19:15.231Z,100351.41
2023-12-08T20:21:41.760Z,100393.53
2023-12-08T20:24:16.162Z,100396.97
2023-12-08T20:26:43.335Z,100346.09
2023-12-08T20:29:09.804Z,100383.06
2023-12-08T20:31:36.240Z,100379.78
2023-12-08T20:34:02.772Z,100376.34
2023-12-08T20:36:29.455Z,100391.09
2023-12-08T20:38:55.933Z,100360.91
2023-12-08T20:41:23.322Z,100381.88
2023-12-08T20:43:50.936Z,100385.00
2023-12-08T20:46:17.409Z,100403.97
2023-12-08T20:48:43.924Z,100388.44
2023-12-08T20:51:10.488Z,100352.28
2023-12-08T20:53:36.945Z,100418.44
2023-12-08T20:56:13.205Z,100419.41
2023-12-08T20:58:40.565Z,100390.09
2023-12-08T21:01:07.506Z,100400.47
2023-12-08T21:03:34.096Z,100412.53
2023-12-08T21:06:00.571Z,100375.78
2023-12-08T21:08:27.050Z,100416.03
2023-12-08T21:10:53.446Z,100413.47
2023-12-08T21:13:21.406Z,100410.91
2023-12-08T21:15:49.857Z,100373.91
2023-12-08T21:18:16.418Z,100427.97
2023-12-08T21:20:42.884Z,100379.91
2023-12-08T21:23:09.421Z,100426.41
2023-12-08T21:25:35.792Z,100409.19
2023-12-08T21:28:02.395Z,100437.75
2023-12-08T21:30:28.892Z,100429.91
2023-12-08T21:32:55.576Z,100415.38
2023-12-08T21:35:22.122Z,100369.84
2023-12-08T21:37:49.021Z,100352.78
2023-12-08T21:40:17.913Z,100387.25
2023-12-08T21:42:49.934Z,100411.41
2023-12-08T21:45:17.403Z,100380.41
2023-12-08T21:47:44.869Z,100422.72
2023-12-08T21:50:11.604Z,100428.03
2023-12-08T21:52:37.968Z,100433.94
2023-12-08T21:55:04.959Z,100436.50
2023-12-08T21:57:31.597Z,100445.22
2023-12-08T21:59:58.122Z,100450.38
2023-12-08T22:02:24.547Z,100437.59
2023-12-08T22:04:51.033Z,100450.53
2023-12-08T22:07:17.493Z,100413.47
2023-12-08T22:09:50.879Z,100442.66
2023-12-08T22:12:18.435Z,100440.19
2023-12-08T22:14:44.928Z,100329.09
2023-12-08T22:17:11.381Z,100454.03
2023-12-08T22:19:37.938Z,100363.72
2023-12-08T22:22:04.478Z,100432.53
2023-12-08T22:24:32.098Z,100430.94
2023-12-08T22:26:58.974Z,100430.91
2023-12-08T22:29:25.852Z,100432.56
2023-12-08T22:31:56.030Z,100454.03
2023-12-08T22:34:23.655Z,100439.47
2023-12-08T22:36:50.279Z,100423.13
2023-12-08T22:39:16.749Z,100434.44
2023-12-08T22:41:43.182Z,100445.53
2023-12-08T22:44:09.539Z,100453.38
2023-12-08T22:46:35.919Z,100450.78
2023-12-08T22:49:02.411Z,100473.22
2023-12-08T22:51:38.458Z,100449.94
2023-12-08T22:54:14.814Z,100272.72
2023-12-08T22:56:43.788Z,100441.34
2023-12-08T22:59:10.212Z,100426.84
2023-12-08T23:01:36.616Z,100432.81
2023-12-08T23:04:03.136Z,100424.25
2023-12-08T23:06:29.775Z,100424.25
2023-12-08T23:08:56.208Z,100450.91
2023-12-08T23:11:22.822Z,100238.34
2023-12-08T23:13:49.363Z,100381.16
2023-12-08T23:16:16.109Z,100477.53
2023-12-08T23:18:42.818Z,100462.69
2023-12-08T23:21:09.286Z,100474.06
2023-12-08T23:23:35.743Z,100446.50
2023-12-08T23:26:03.431Z,100387.91
2023-12-08T23:28:29.942Z,100461.16
2023-12-08T23:31:02.287Z,100392.38
2023-12-08T23:33:30.145Z,100421.50
2023-12-08T23:35:56.786Z,100518.84
2023-12-08T23:38:23.246Z,100437.75
2023-12-08T23:40:49.750Z,100332.91
2023-12-08T23:43:16.123Z,100477.50
2023-12-08T23:45:42.516Z,100442.81
2023-12-08T23:48:09.036Z,100443.69
2023-12-08T23:50:35.489Z,100418.84
2023-12-08T23:53:01.899Z,100411.13
2023-12-08T23:55:28.273Z,100460.13
2023-12-08T23:57:54.702Z,100486.84
